Time,TemperatureF,DewpointF,PressureIn,WindDirection,WindDirectionDegrees,WindSpeedMPH,WindSpeedGustMPH,Humidity,HourlyPrecipIn,Conditions,Clouds,dailyrainin,SoftwareType,DateUTC
2015-07-07 00:06:00,79.2,71.7,29.86,NNW,332,1.0,1.0,78,0.00,,,0.00,Wunderground v.1.15,2015-07-07 05:06:00,
2015-07-07 00:15:00,79.1,71.6,29.88,WSW,239,1.0,2.0,78,0.00,,,0.00,Wunderground v.1.15,2015-07-07 05:15:00,
2015-07-07 00:20:00,78.9,71.8,29.88,WSW,239,1.0,1.0,79,0.00,,,0.00,Wunderground v.1.15,2015-07-07 05:20:00,
2015-07-07 00:25:00,78.7,72.0,29.88,WSW,239,1.0,2.0,80,0.00,,,0.00,Wunderground v.1.15,2015-07-07 05:25:00,
2015-07-07 00:30:00,78.5,72.2,29.88,WSW,244,1.0,1.0,81,0.00,,,0.00,Wunderground v.1.15,2015-07-07 05:30:00,
2015-07-07 00:40:00,78.2,71.9,29.88,West,259,2.0,2.0,81,0.00,,,0.00,Wunderground v.1.15,2015-07-07 05:40:00,
2015-07-07 00:45:00,78.0,71.7,29.88,West,259,2.0,4.0,81,0.00,,,0.00,Wunderground v.1.15,2015-07-07 05:45:00,
2015-07-07 00:50:00,76.8,70.5,29.88,West,271,2.0,4.0,81,0.00,,,0.00,Wunderground v.1.15,2015-07-07 05:50:00,
2015-07-07 00:54:00,75.1,69.9,29.88,West,269,3.0,4.0,84,0.00,,,0.00,Wunderground v.1.15,2015-07-07 05:54:00,
2015-07-07 00:59:00,74.3,69.5,29.89,NW,322,2.0,2.0,85,0.00,,,0.00,Wunderground v.1.15,2015-07-07 05:59:00,
2015-07-07 01:05:00,73.8,69.3,29.89,West,281,2.0,5.0,86,0.00,,,0.00,Wunderground v.1.15,2015-07-07 06:05:00,
2015-07-07 01:10:00,73.5,69.4,29.89,NNW,340,2.0,2.0,87,0.00,,,0.00,Wunderground v.1.15,2015-07-07 06:10:00,
2015-07-07 01:15:00,73.2,69.1,29.88,WNW,282,1.0,2.0,87,0.00,,,0.00,Wunderground v.1.15,2015-07-07 06:15:00,
2015-07-07 01:20:00,73.0,69.2,29.88,NNW,329,1.0,1.0,88,0.00,,,0.00,Wunderground v.1.15,2015-07-07 06:20:00,
2015-07-07 01:25:00,72.9,69.1,29.88,North,5,1.0,1.0,88,0.00,,,0.00,Wunderground v.1.15,2015-07-07 06:25:00,
2015-07-07 01:30:00,72.8,69.4,29.88,NW,323,1.0,1.0,89,0.00,,,0.00,Wunderground v.1.15,2015-07-07 06:30:00,
2015-07-07 01:40:00,72.6,69.2,29.88,NNW,329,1.0,1.0,89,0.00,,,0.00,Wunderground v.1.15,2015-07-07 06:40:00,
2015-07-07 01:45:00,72.5,69.1,29.86,West,261,1.0,1.0,89,0.00,,,0.00,Wunderground v.1.15,2015-07-07 06:45:00,
2015-07-07 01:50:00,72.4,69.0,29.86,North,5,0.0,1.0,89,0.00,,,0.00,Wunderground v.1.15,2015-07-07 06:50:00,
2015-07-07 01:54:00,72.3,68.9,29.86,North,5,0.0,1.0,89,0.00,,,0.00,Wunderground v.1.15,2015-07-07 06:54:00,
2015-07-07 01:59:00,72.2,69.1,29.86,North,350,1.0,1.0,90,0.00,,,0.00,Wunderground v.1.15,2015-07-07 06:59:00,
2015-07-07 02:05:00,72.1,69.0,29.86,North,5,1.0,1.0,90,0.00,,,0.00,Wunderground v.1.15,2015-07-07 07:05:00,
2015-07-07 02:10:00,72.1,69.0,29.86,North,5,1.0,1.0,90,0.00,,,0.00,Wunderground v.1.15,2015-07-07 07:10:00,
2015-07-07 02:15:00,72.0,68.9,29.85,North,5,0.0,1.0,90,0.00,,,0.00,Wunderground v.1.15,2015-07-07 07:15:00,
2015-07-07 02:20:00,71.9,69.1,29.85,North,5,1.0,1.0,91,0.00,,,0.00,Wunderground v.1.15,2015-07-07 07:20:00,
2015-07-07 02:25:00,71.9,69.1,29.85,North,5,1.0,1.0,91,0.00,,,0.00,Wunderground v.1.15,2015-07-07 07:25:00,
2015-07-07 02:30:00,71.8,69.0,29.84,ENE,58,1.0,1.0,91,0.00,,,0.00,Wunderground v.1.15,2015-07-07 07:30:00,
2015-07-07 02:35:00,71.8,69.0,29.84,ESE,123,1.0,1.0,91,0.00,,,0.00,Wunderground v.1.15,2015-07-07 07:35:00,
2015-07-07 02:45:00,71.7,69.3,29.83,East,79,1.0,2.0,92,0.00,,,0.00,Wunderground v.1.15,2015-07-07 07:45:00,
2015-07-07 02:50:00,71.6,69.2,29.83,East,79,1.0,1.0,92,0.00,,,0.00,Wunderground v.1.15,2015-07-07 07:50:00,
2015-07-07 02:54:00,71.6,69.5,29.83,East,93,0.0,1.0,93,0.00,,,0.00,Wunderground v.1.15,2015-07-07 07:54:00,
2015-07-07 02:59:00,71.5,69.4,29.82,East,81,0.0,1.0,93,0.00,,,0.00,Wunderground v.1.15,2015-07-07 07:59:00,
2015-07-07 03:05:00,71.4,69.3,29.82,East,82,0.0,1.0,93,0.00,,,0.00,Wunderground v.1.15,2015-07-07 08:05:00,
2015-07-07 03:15:00,71.4,69.3,29.82,SE,144,1.0,1.0,93,0.00,,,0.00,Wunderground v.1.15,2015-07-07 08:15:00,
2015-07-07 03:20:00,71.3,69.2,29.82,SE,144,0.0,0.0,93,0.00,,,0.00,Wunderground v.1.15,2015-07-07 08:20:00,
2015-07-07 03:25:00,71.3,69.2,29.82,SE,144,0.0,0.0,93,0.00,,,0.00,Wunderground v.1.15,2015-07-07 08:25:00,
2015-07-07 03:30:00,71.3,69.2,29.81,East,98,0.0,0.0,93,0.00,,,0.00,Wunderground v.1.15,2015-07-07 08:30:00,
2015-07-07 03:35:00,71.3,69.2,29.81,ESE,111,0.0,0.0,93,0.00,,,0.00,Wunderground v.1.15,2015-07-07 08:35:00,
2015-07-07 03:45:00,71.4,69.6,29.81,SSE,148,1.0,5.0,94,0.00,,,0.00,Wunderground v.1.15,2015-07-07 08:45:00,
2015-07-07 03:50:00,71.6,69.8,29.81,SE,146,1.0,2.0,94,0.00,,,0.00,Wunderground v.1.15,2015-07-07 08:50:00,
2015-07-07 03:54:00,71.7,69.9,29.81,SSE,147,1.0,2.0,94,0.00,,,0.00,Wunderground v.1.15,2015-07-07 08:54:00,
2015-07-07 03:59:00,71.9,69.8,29.81,SE,144,1.0,1.0,93,0.00,,,0.00,Wunderground v.1.15,2015-07-07 08:59:00,
2015-07-07 04:05:00,72.0,69.9,29.81,SSE,156,1.0,1.0,93,0.00,,,0.00,Wunderground v.1.15,2015-07-07 09:05:00,
2015-07-07 04:15:00,72.3,70.2,29.81,SSE,152,1.0,1.0,93,0.00,,,0.00,Wunderground v.1.15,2015-07-07 09:15:00,
2015-07-07 04:20:00,72.4,70.3,29.81,SSE,150,2.0,2.0,93,0.00,,,0.00,Wunderground v.1.15,2015-07-07 09:20:00,
2015-07-07 04:25:00,72.5,70.0,29.81,SSE,150,1.0,2.0,92,0.00,,,0.00,Wunderground v.1.15,2015-07-07 09:25:00,
2015-07-07 04:30:00,72.5,70.0,29.82,South,171,1.0,2.0,92,0.00,,,0.00,Wunderground v.1.15,2015-07-07 09:30:00,
2015-07-07 04:35:00,72.4,69.9,29.82,SW,229,1.0,2.0,92,0.00,,,0.00,Wunderground v.1.15,2015-07-07 09:35:00,
2015-07-07 04:40:00,72.3,69.8,29.82,SW,229,1.0,1.0,92,0.00,,,0.00,Wunderground v.1.15,2015-07-07 09:40:00,
2015-07-07 04:50:00,72.1,69.6,29.83,SW,234,1.0,1.0,92,0.00,,,0.00,Wunderground v.1.15,2015-07-07 09:50:00,
2015-07-07 04:54:00,72.0,69.9,29.83,SW,234,0.0,1.0,93,0.00,,,0.00,Wunderground v.1.15,2015-07-07 09:54:00,
2015-07-07 04:59:00,72.0,69.9,29.84,SW,234,0.0,0.0,93,0.00,,,0.00,Wunderground v.1.15,2015-07-07 09:59:00,
2015-07-07 05:05:00,71.9,69.8,29.84,SW,234,0.0,0.0,93,0.00,,,0.00,Wunderground v.1.15,2015-07-07 10:05:00,
2015-07-07 05:10:00,71.9,69.8,29.84,SW,234,0.0,0.0,93,0.00,,,0.00,Wunderground v.1.15,2015-07-07 10:10:00,
2015-07-07 05:20:00,71.8,69.7,29.85,SW,234,0.0,0.0,93,0.00,,,0.00,Wunderground v.1.15,2015-07-07 10:20:00,
2015-07-07 05:30:00,71.8,69.7,29.85,WNW,282,0.0,1.0,93,0.00,,,0.00,Wunderground v.1.15,2015-07-07 10:30:00,
2015-07-07 05:39:00,71.9,69.8,29.85,WNW,287,1.0,1.0,93,0.00,,,0.00,Wunderground v.1.15,2015-07-07 10:39:00,
2015-07-07 05:49:00,72.0,70.2,29.85,WNW,287,0.0,0.0,94,0.00,,,0.00,Wunderground v.1.15,2015-07-07 10:49:00,
2015-07-07 05:59:00,72.0,70.2,29.86,WNW,287,0.0,0.0,94,0.00,,,0.00,Wunderground v.1.15,2015-07-07 10:59:00,
2015-07-07 06:05:00,72.0,70.2,29.86,WNW,287,0.0,0.0,94,0.00,,,0.00,Wunderground v.1.15,2015-07-07 11:05:00,
2015-07-07 06:14:00,72.0,70.2,29.86,WNW,287,0.0,0.0,94,0.00,,,0.00,Wunderground v.1.15,2015-07-07 11:14:00,
2015-07-07 06:24:00,72.1,70.3,29.86,WNW,287,0.0,0.0,94,0.00,,,0.00,Wunderground v.1.15,2015-07-07 11:24:00,
2015-07-07 06:34:00,72.1,70.3,29.87,North,355,1.0,2.0,94,0.00,,,0.00,Wunderground v.1.15,2015-07-07 11:34:00,
2015-07-07 06:44:00,72.2,70.4,29.87,North,349,0.0,1.0,94,0.00,,,0.00,Wunderground v.1.15,2015-07-07 11:44:00,
2015-07-07 06:54:00,72.2,70.4,29.87,North,349,0.0,1.0,94,0.00,,,0.00,Wunderground v.1.15,2015-07-07 11:54:00,
2015-07-07 07:04:00,72.3,70.5,29.87,North,5,1.0,1.0,94,0.00,,,0.00,Wunderground v.1.15,2015-07-07 12:04:00,
2015-07-07 07:14:00,72.4,70.6,29.87,North,355,1.0,2.0,94,0.00,,,0.00,Wunderground v.1.15,2015-07-07 12:14:00,
2015-07-07 07:34:00,72.4,70.6,29.88,NNE,13,1.0,2.0,94,0.00,,,0.00,Wunderground v.1.15,2015-07-07 12:34:00,
2015-07-07 07:44:00,72.3,70.8,29.88,NNW,342,2.0,2.0,95,0.00,,,0.00,Wunderground v.1.15,2015-07-07 12:44:00,
2015-07-07 07:54:00,72.3,70.8,29.88,NNW,327,2.0,3.0,95,0.00,,,0.00,Wunderground v.1.15,2015-07-07 12:54:00,
2015-07-07 08:04:00,72.3,70.8,29.88,NNW,340,2.0,3.0,95,0.00,,,0.00,Wunderground v.1.15,2015-07-07 13:04:00,
2015-07-07 08:10:00,72.3,70.8,29.88,NNW,343,2.0,3.0,95,0.00,,,0.00,Wunderground v.1.15,2015-07-07 13:10:00,
2015-07-07 08:15:00,72.3,70.5,29.88,NNW,346,3.0,3.0,94,0.00,,,0.00,Wunderground v.1.15,2015-07-07 13:15:00,
2015-07-07 08:25:00,72.3,70.5,29.88,North,5,3.0,4.0,94,0.00,,,0.00,Wunderground v.1.15,2015-07-07 13:25:00,
2015-07-07 08:34:00,72.3,70.5,29.88,NNW,329,3.0,3.0,94,0.00,,,0.00,Wunderground v.1.15,2015-07-07 13:34:00,
2015-07-07 08:44:00,72.3,70.8,29.89,NNW,347,3.0,4.0,95,0.00,,,0.00,Wunderground v.1.15,2015-07-07 13:44:00,
2015-07-07 08:54:00,72.4,70.9,29.89,NNW,340,3.0,3.0,95,0.00,,,0.00,Wunderground v.1.15,2015-07-07 13:54:00,
2015-07-07 08:59:00,72.6,71.1,29.89,NNW,339,3.0,3.0,95,0.00,,,0.00,Wunderground v.1.15,2015-07-07 13:59:00,
2015-07-07 09:04:00,72.7,71.2,29.89,North,5,2.0,3.0,95,0.00,,,0.00,Wunderground v.1.15,2015-07-07 14:04:00,
2015-07-07 09:09:00,72.8,71.3,29.89,NNW,329,2.0,5.0,95,0.00,,,0.00,Wunderground v.1.15,2015-07-07 14:09:00,
2015-07-07 09:14:00,72.8,71.3,29.89,NNW,346,2.0,5.0,95,0.00,,,0.00,Wunderground v.1.15,2015-07-07 14:14:00,
2015-07-07 09:19:00,72.8,71.3,29.89,North,355,3.0,4.0,95,0.00,,,0.00,Wunderground v.1.15,2015-07-07 14:19:00,
2015-07-07 09:29:00,72.7,71.2,29.90,North,5,2.0,2.0,95,0.00,,,0.00,Wunderground v.1.15,2015-07-07 14:29:00,
2015-07-07 09:34:00,72.7,71.2,29.90,NNW,348,2.0,2.0,95,0.00,,,0.00,Wunderground v.1.15,2015-07-07 14:34:00,
2015-07-07 09:44:00,72.7,71.2,29.90,North,355,2.0,2.0,95,0.00,,,0.00,Wunderground v.1.15,2015-07-07 14:44:00,
2015-07-07 09:54:00,72.7,71.2,29.90,North,350,2.0,2.0,95,0.00,,,0.01,Wunderground v.1.15,2015-07-07 14:54:00,
2015-07-07 09:59:00,72.6,71.1,29.90,NNW,342,2.0,2.0,95,0.00,,,0.01,Wunderground v.1.15,2015-07-07 14:59:00,
2015-07-07 10:04:00,72.6,71.1,29.90,North,360,2.0,4.0,95,0.04,,,0.02,Wunderground v.1.15,2015-07-07 15:04:00,
2015-07-07 10:14:00,72.8,71.6,29.89,North,5,2.0,2.0,96,0.04,,,0.02,Wunderground v.1.15,2015-07-07 15:14:00,
2015-07-07 10:23:00,72.7,71.5,29.89,NNE,14,2.0,4.0,96,0.00,,,0.02,Wunderground v.1.15,2015-07-07 15:23:00,
2015-07-07 10:32:00,72.6,71.4,29.89,NNE,19,2.0,2.0,96,0.00,,,0.03,Wunderground v.1.15,2015-07-07 15:32:00,
2015-07-07 10:42:00,72.8,71.6,29.89,North,360,1.0,2.0,96,0.00,,,0.03,Wunderground v.1.15,2015-07-07 15:42:00,
2015-07-07 10:52:00,72.5,71.3,29.89,NNE,32,3.0,3.0,96,0.00,,,0.04,Wunderground v.1.15,2015-07-07 15:52:00,
2015-07-07 11:01:00,72.5,71.3,29.89,NNE,15,2.0,3.0,96,0.00,,,0.04,Wunderground v.1.15,2015-07-07 16:01:00,
2015-07-07 11:10:00,72.4,71.2,29.89,North,355,2.0,2.0,96,0.04,,,0.05,Wunderground v.1.15,2015-07-07 16:10:00,
2015-07-07 11:15:00,72.4,71.2,29.89,North,355,2.0,2.0,96,0.04,,,0.05,Wunderground v.1.15,2015-07-07 16:15:00,
2015-07-07 11:20:00,72.5,71.3,29.89,NNE,16,2.0,2.0,96,0.04,,,0.05,Wunderground v.1.15,2015-07-07 16:20:00,
2015-07-07 11:25:00,72.5,71.6,29.89,North,11,2.0,2.0,97,0.00,,,0.05,Wunderground v.1.15,2015-07-07 16:25:00,
2015-07-07 11:30:00,72.6,71.7,29.89,North,5,1.0,1.0,97,0.00,,,0.05,Wunderground v.1.15,2015-07-07 16:30:00,
2015-07-07 11:35:00,72.6,71.7,29.89,NNW,346,1.0,1.0,97,0.00,,,0.06,Wunderground v.1.15,2015-07-07 16:35:00,
2015-07-07 11:45:00,72.8,71.9,29.89,North,355,1.0,3.0,97,0.07,,,0.07,Wunderground v.1.15,2015-07-07 16:45:00,
2015-07-07 11:50:00,72.8,71.9,29.89,North,355,1.0,1.0,97,0.06,,,0.07,Wunderground v.1.15,2015-07-07 16:50:00,
2015-07-07 11:55:00,72.8,71.9,29.89,NNE,15,2.0,2.0,97,0.04,,,0.07,Wunderground v.1.15,2015-07-07 16:55:00,
2015-07-07 12:00:00,72.8,71.9,29.89,NNW,344,2.0,2.0,97,0.00,,,0.07,Wunderground v.1.15,2015-07-07 17:00:00,
2015-07-07 12:05:00,72.7,71.5,29.89,NNW,346,2.0,2.0,96,0.00,,,0.07,Wunderground v.1.15,2015-07-07 17:05:00,
2015-07-07 12:10:00,72.6,71.4,29.89,North,355,2.0,2.0,96,0.00,,,0.07,Wunderground v.1.15,2015-07-07 17:10:00,
2015-07-07 12:20:00,72.5,71.3,29.90,North,360,1.0,1.0,96,0.00,,,0.07,Wunderground v.1.15,2015-07-07 17:20:00,
2015-07-07 12:25:00,72.5,71.6,29.90,North,355,1.0,1.0,97,0.00,,,0.07,Wunderground v.1.15,2015-07-07 17:25:00,
2015-07-07 12:30:00,72.5,71.6,29.90,North,355,1.0,1.0,97,0.00,,,0.07,Wunderground v.1.15,2015-07-07 17:30:00,
2015-07-07 12:35:00,72.4,71.5,29.90,WSW,244,0.0,1.0,97,0.00,,,0.07,Wunderground v.1.15,2015-07-07 17:35:00,
2015-07-07 12:40:00,72.5,71.6,29.90,NNW,348,0.0,0.0,97,1.90,,,0.23,Wunderground v.1.15,2015-07-07 17:40:00,
2015-07-07 12:45:00,72.4,71.5,29.91,North,355,1.0,5.0,97,5.01,,,0.39,Wunderground v.1.15,2015-07-07 17:45:00,
2015-07-07 12:55:00,72.1,71.2,29.91,NE,40,2.0,4.0,97,0.15,,,0.59,Wunderground v.1.15,2015-07-07 17:55:00,
2015-07-07 13:05:00,72.2,71.3,29.90,North,5,1.0,2.0,97,0.08,,,0.61,Wunderground v.1.15,2015-07-07 18:05:00,
2015-07-07 13:10:00,72.4,71.5,29.90,North,5,0.0,0.0,97,0.05,,,0.61,Wunderground v.1.15,2015-07-07 18:10:00,
2015-07-07 13:15:00,72.6,71.7,29.91,North,355,0.0,0.0,97,0.00,,,0.61,Wunderground v.1.15,2015-07-07 18:15:00,
2015-07-07 13:20:00,72.8,71.9,29.91,North,9,0.0,0.0,97,0.00,,,0.61,Wunderground v.1.15,2015-07-07 18:20:00,
2015-07-07 13:25:00,73.0,72.1,29.91,North,9,0.0,0.0,97,0.00,,,0.61,Wunderground v.1.15,2015-07-07 18:25:00,
2015-07-07 13:30:00,73.0,72.1,29.91,North,9,0.0,0.0,97,0.00,,,0.61,Wunderground v.1.15,2015-07-07 18:30:00,
2015-07-07 14:17:00,72.9,71.7,29.90,North,5,2.0,2.0,96,0.00,,,0.67,Wunderground v.1.15,2015-07-07 19:17:00,
2015-07-07 14:25:00,72.9,71.7,29.90,NNE,28,1.0,2.0,96,0.13,,,0.69,Wunderground v.1.15,2015-07-07 19:25:00,
2015-07-07 14:34:00,72.8,71.6,29.90,NE,44,1.0,2.0,96,0.17,,,0.71,Wunderground v.1.15,2015-07-07 19:34:00,
2015-07-07 14:44:00,72.5,71.3,29.91,NNW,338,1.0,1.0,96,0.38,,,0.77,Wunderground v.1.15,2015-07-07 19:44:00,
2015-07-07 14:54:00,72.3,71.1,29.91,North,360,2.0,2.0,96,0.17,,,0.80,Wunderground v.1.15,2015-07-07 19:54:00,
2015-07-07 15:04:00,72.3,71.4,29.90,North,5,1.0,4.0,97,0.20,,,0.86,Wunderground v.1.15,2015-07-07 20:04:00,
2015-07-07 15:14:00,72.4,71.5,29.90,North,5,1.0,4.0,97,0.30,,,0.89,Wunderground v.1.15,2015-07-07 20:14:00,
2015-07-07 15:24:00,72.4,71.5,29.90,NNE,24,1.0,4.0,97,0.22,,,0.92,Wunderground v.1.15,2015-07-07 20:24:00,
2015-07-07 15:33:00,72.5,71.6,29.90,NNW,340,1.0,4.0,97,0.19,,,0.95,Wunderground v.1.15,2015-07-07 20:33:00,
2015-07-07 15:43:00,72.6,71.7,29.89,North,355,1.0,4.0,97,0.16,,,0.98,Wunderground v.1.15,2015-07-07 20:43:00,
2015-07-07 15:48:00,72.7,71.8,29.89,NNE,24,1.0,4.0,97,0.25,,,1.00,Wunderground v.1.15,2015-07-07 20:48:00,
2015-07-07 15:58:00,72.8,71.9,29.89,North,5,1.0,4.0,97,0.20,,,1.03,Wunderground v.1.15,2015-07-07 20:58:00,
2015-07-07 16:08:00,72.6,71.7,29.89,NW,325,1.0,4.0,97,0.06,,,1.04,Wunderground v.1.15,2015-07-07 21:08:00,
2015-07-07 16:15:00,72.3,71.4,29.89,NNW,330,2.0,4.0,97,0.13,,,1.05,Wunderground v.1.15,2015-07-07 21:15:00,
2015-07-07 16:25:00,72.0,71.1,29.89,NW,323,2.0,5.0,97,0.04,,,1.05,Wunderground v.1.15,2015-07-07 21:25:00,
2015-07-07 16:30:00,71.7,70.8,29.89,North,355,3.0,3.0,97,0.00,,,1.05,Wunderground v.1.15,2015-07-07 21:30:00,
2015-07-07 16:35:00,71.5,70.3,29.89,NNW,330,2.0,4.0,96,0.00,,,1.05,Wunderground v.1.15,2015-07-07 21:35:00,
2015-07-07 16:40:00,71.2,70.0,29.89,NNW,346,2.0,4.0,96,0.00,,,1.06,Wunderground v.1.15,2015-07-07 21:40:00,
2015-07-07 16:45:00,71.0,69.8,29.89,North,11,3.0,4.0,96,0.06,,,1.07,Wunderground v.1.15,2015-07-07 21:45:00,
2015-07-07 16:55:00,70.7,69.5,29.89,North,355,3.0,4.0,96,0.22,,,1.09,Wunderground v.1.15,2015-07-07 21:55:00,
2015-07-07 17:05:00,70.5,69.3,29.89,North,360,2.0,5.0,96,0.07,,,1.10,Wunderground v.1.15,2015-07-07 22:05:00,
2015-07-07 17:15:00,70.5,69.6,29.89,North,5,3.0,4.0,97,0.09,,,1.11,Wunderground v.1.15,2015-07-07 22:15:00,
2015-07-07 17:35:00,70.0,68.8,29.89,NW,323,3.0,4.0,96,0.00,,,1.11,Wunderground v.1.15,2015-07-07 22:35:00,
2015-07-07 17:45:00,69.9,69.0,29.89,North,11,3.0,4.0,97,0.00,,,1.11,Wunderground v.1.15,2015-07-07 22:45:00,
2015-07-07 17:55:00,69.9,69.0,29.89,North,349,3.0,4.0,97,0.00,,,1.11,Wunderground v.1.15,2015-07-07 22:55:00,
2015-07-07 18:00:00,69.8,68.9,29.88,North,360,3.0,4.0,97,0.00,,,1.11,Wunderground v.1.15,2015-07-07 23:00:00,
2015-07-07 18:05:00,69.7,68.8,29.88,NNE,15,3.0,4.0,97,0.00,,,1.11,Wunderground v.1.15,2015-07-07 23:05:00,
2015-07-07 18:10:00,69.6,68.4,29.88,North,5,2.0,4.0,96,0.00,,,1.11,Wunderground v.1.15,2015-07-07 23:10:00,
2015-07-07 18:20:00,69.5,68.6,29.88,NNW,329,1.0,1.0,97,0.00,,,1.11,Wunderground v.1.15,2015-07-07 23:20:00,
2015-07-07 18:25:00,69.5,68.6,29.88,North,360,1.0,4.0,97,0.00,,,1.11,Wunderground v.1.15,2015-07-07 23:25:00,
2015-07-07 18:30:00,69.5,68.6,29.88,North,5,1.0,4.0,97,0.00,,,1.11,Wunderground v.1.15,2015-07-07 23:30:00,
2015-07-07 18:35:00,69.5,68.6,29.88,North,360,1.0,4.0,97,0.00,,,1.11,Wunderground v.1.15,2015-07-07 23:35:00,
2015-07-07 18:45:00,69.4,68.5,29.88,North,5,2.0,4.0,97,0.00,,,1.11,Wunderground v.1.15,2015-07-07 23:45:00,
2015-07-07 18:50:00,69.4,68.5,29.88,NNE,26,3.0,3.0,97,0.00,,,1.11,Wunderground v.1.15,2015-07-07 23:50:00,
2015-07-07 19:00:00,69.4,68.5,29.88,North,5,3.0,3.0,97,0.00,,,1.11,Wunderground v.1.15,2015-07-08 00:00:00,
2015-07-07 19:05:00,69.5,68.6,29.88,NNE,27,2.0,4.0,97,0.00,,,1.12,Wunderground v.1.15,2015-07-08 00:05:00,
2015-07-07 19:15:00,69.4,68.5,29.88,ENE,57,3.0,6.0,97,0.05,,,1.13,Wunderground v.1.15,2015-07-08 00:15:00,
2015-07-07 19:20:00,69.4,68.5,29.88,North,360,3.0,4.0,97,0.05,,,1.13,Wunderground v.1.15,2015-07-08 00:20:00,
2015-07-07 19:30:00,69.3,68.4,29.88,NE,42,2.0,2.0,97,0.10,,,1.15,Wunderground v.1.15,2015-07-08 00:30:00,
2015-07-07 19:35:00,69.3,68.4,29.88,NW,309,1.0,3.0,97,0.08,,,1.15,Wunderground v.1.15,2015-07-08 00:35:00,
2015-07-07 19:45:00,69.3,68.4,29.88,NE,40,2.0,4.0,97,0.04,,,1.15,Wunderground v.1.15,2015-07-08 00:45:00,
2015-07-07 19:50:00,69.3,68.4,29.88,NNW,342,2.0,4.0,97,0.00,,,1.15,Wunderground v.1.15,2015-07-08 00:50:00,
2015-07-07 20:00:00,69.3,68.7,29.88,NE,39,2.0,2.0,98,0.00,,,1.16,Wunderground v.1.15,2015-07-08 01:00:00,